Latest Weather Observations for Jervis Bay Airfield

IDN60901

Issued at 4:42 am EST Monday 6 April 2020 (issued every 10 minutes, with the page automatically refreshed every 10 minutes)

About weather observations | Map of Canberra area stations | Latest observations for Canberra area | Other Formats
Station Details ID: 068264 Name: JERVIS BAY AIRFIELD AWS Lat: -35.14 Lon: 150.70 Height: 57.18 m
Data from the previous 72 hours. | See also: Recent months at Jervis Bay Airfield
Date/Time
EST
Temp
°C
App
Temp
°C
Dew
Point
°C
Rel
Hum
%
Delta-T
°C
Wind Press
QNH
hPa
Press
MSL
hPa
Rain since
9am
mm
Dir  Spd
km/h
Gust
km/h
Spd
kts
Gust
kts
06/04:30am 16.5 13.0 10.1 66 3.4 WNW 19 30 10 16 1014.2 1014.1 0.0
06/04:00am 16.6 12.8 9.8 64 3.6 WNW 20 33 11 18 1013.8 1013.7 0.0
06/03:30am 16.4 13.1 9.6 64 3.6 W 17 28 9 15 1013.9 1013.8 0.0
06/03:00am 16.5 12.6 9.4 63 3.7 W 20 32 11 17 1013.7 1013.6 0.0
06/02:30am 16.5 12.7 9.2 62 3.8 W 19 26 10 14 1013.7 1013.6 0.0
06/02:00am 16.6 12.2 9.1 61 3.9 WNW 22 35 12 19 1013.9 1013.8 0.0
06/01:30am 16.2 13.6 9.2 63 3.6 W 13 20 7 11 1014.2 1014.1 0.0
06/01:00am 14.9 12.2 9.1 68 3.0 WNW 13 19 7 10 1014.0 1013.9 0.0
06/12:30am 15.2 13.6 8.7 65 3.3 WNW 7 11 4 6 1014.3 1014.2 0.0
06/12:00am 15.2 13.5 8.2 63 3.5 NNW 7 9 4 5 1014.4 1014.3 0.0
 
Date/Time
EST
Temp
°C
App
Temp
°C
Dew
Point
°C
Rel
Hum
%
Delta-T
°C
Wind Press
QNH
hPa
Press
MSL
hPa
Rain since
9am
mm
Dir  Spd
km/h
Gust
km/h
Spd
kts
Gust
kts
05/11:30pm 16.4 12.7 7.9 57 4.3 NW 17 24 9 13 1014.1 1014.0 0.0
05/11:00pm 16.0 13.1 8.2 60 4.0 NW 13 19 7 10 1014.2 1014.1 0.0
05/10:30pm 16.7 12.5 8.4 58 4.2 WNW 20 30 11 16 1014.1 1014.0 0.0
05/10:00pm 16.5 11.4 7.7 56 4.4 WNW 24 41 13 22 1014.0 1013.9 0.0
05/09:30pm 16.4 12.2 7.3 55 4.5 WNW 19 26 10 14 1014.2 1014.1 0.0
05/09:00pm 16.2 13.1 7.4 56 4.4 NW 13 22 7 12 1014.4 1014.3 0.0
05/08:30pm 16.4 13.0 7.6 56 4.4 WNW 15 24 8 13 1014.5 1014.4 0.0
05/08:00pm 16.6 13.6 7.8 56 4.4 WNW 13 20 7 11 1014.4 1014.3 0.0
05/07:30pm 17.1 12.7 7.5 53 4.8 WNW 20 33 11 18 1014.1 1014.0 0.0
05/07:00pm 17.1 12.9 7.5 53 4.8 W 19 30 10 16 1013.5 1013.4 0.0
05/06:39pm 17.5 11.6 7.3 51 5.1 W 28 50 15 27 1013.2 1013.1 0.0
05/06:30pm 17.4 11.8 7.2 51 5.1 W 26 41 14 22 1013.2 1013.1 0.0
05/06:00pm 17.7 12.4 6.9 49 5.4 W 24 37 13 20 1012.7 1012.6 0.0
05/05:30pm 18.1 13.1 6.3 46 5.8 W 22 39 12 21 1012.3 1012.2 0.0
05/05:00pm 18.3 13.0 6.8 47 5.8 WNW 24 43 13 23 1011.8 1011.7 0.0
05/04:30pm 18.3 11.8 6.5 46 5.9 WNW 30 43 16 23 1011.4 1011.3 0.0
05/04:04pm 18.9 12.8 6.7 45 6.1 WNW 28 46 15 25 1011.2 1011.1 0.0
05/04:00pm 18.9 12.1 7.0 46 6.0 WNW 32 46 17 25 1011.1 1011.0 0.0
05/03:34pm 19.2 13.2 7.0 45 6.2 WNW 28 46 15 25 1011.0 1010.9 0.0
05/03:30pm 19.2 12.8 7.0 45 6.2 WNW 30 46 16 25 1011.0 1010.9 0.0
05/03:00pm 19.3 12.4 6.4 43 6.5 WNW 32 50 17 27 1010.7 1010.6 0.0
05/02:30pm 19.9 13.2 7.3 44 6.4 W 32 50 17 27 1010.6 1010.5 0.0
05/02:11pm 20.0 12.4 6.0 40 7.0 WNW 35 56 19 30 1010.0 1009.9 0.0
05/02:00pm 20.1 13.3 6.8 42 6.7 WNW 32 48 17 26 1009.9 1009.8 0.0
05/01:55pm 20.0 13.4 6.0 40 7.0 WNW 30 48 16 26 1009.7 1009.6 0.0
05/01:30pm 20.3 13.8 6.6 41 6.9 WNW 30 43 16 23 1010.2 1010.1 0.0
05/01:06pm 19.6 12.7 6.4 42 6.6 WNW 32 52 17 28 1010.4 1010.3 0.0
05/01:00pm 19.3 11.8 6.1 42 6.6 WNW 35 48 19 26 1010.6 1010.5 0.0
05/12:30pm 19.4 12.4 5.8 41 6.7 WNW 32 50 17 27 1010.4 1010.3 0.0
05/12:00pm 19.2 11.3 6.0 42 6.6 WNW 37 56 20 30 1010.5 1010.4 0.0
05/11:44am 18.7 11.4 5.5 42 6.5 WNW 33 52 18 28 1011.1 1011.0 0.0
05/11:30am 19.0 13.2 6.2 43 6.4 W 26 43 14 23 1011.7 1011.6 0.0
05/11:00am 18.4 12.0 6.9 47 5.8 WNW 30 48 16 26 1011.9 1011.8 0.0
05/10:30am 17.9 10.0 6.4 47 5.7 WNW 37 56 20 30 1011.7 1011.6 0.0
05/10:11am 17.8 11.6 6.0 46 5.8 WNW 28 54 15 29 1011.8 1011.7 0.0
05/10:00am 17.6 11.1 6.5 48 5.5 WNW 30 46 16 25 1012.2 1012.1 0.0
05/09:56am 17.6 11.5 6.8 49 5.4 WNW 28 46 15 25 1012.2 1012.1 0.0
05/09:30am 16.9 10.8 6.7 51 5.0 WNW 28 41 15 22 1012.4 1012.3 0.0
05/09:00am 16.6 11.3 7.0 53 4.8 WNW 24 35 13 19 1012.6 1012.5 0.0
05/08:30am 16.3 11.0 7.0 54 4.6 WNW 24 41 13 22 1012.4 1012.3 0.0
05/08:00am 16.0 12.6 7.5 57 4.3 NW 15 22 8 12 1012.0 1011.9 0.0
05/07:30am 14.7 11.0 8.0 64 3.4 NNW 17 22 9 12 1011.7 1011.6 0.0
05/07:00am 13.0 10.6 8.5 74 2.3 NNW 11 17 6 9 1011.5 1011.4 0.0
05/06:30am 11.4 8.4 7.9 79 1.7 NNW 13 17 7 9 1011.2 1011.1 0.0
05/06:00am 11.3 9.0 7.4 77 1.9 NNW 9 11 5 6 1010.9 1010.8 0.0
05/05:30am 12.1 10.7 7.4 73 2.3 NNW 4 9 2 5 1010.8 1010.7 0.0
05/05:00am 12.3 10.5 7.0 70 2.6 NNW 6 9 3 5 1010.4 1010.3 0.0
05/04:30am 13.2 9.3 7.2 67 2.9 NW 17 24 9 13 1009.7 1009.6 0.0
05/04:00am 13.1 10.0 7.3 68 2.8 WNW 13 20 7 11 1009.7 1009.6 0.0
05/03:30am 12.9 10.6 7.4 69 2.7 WSW 9 11 5 6 1009.4 1009.3 0.0
05/03:00am 13.4 11.5 7.4 67 2.9 WNW 7 11 4 6 1009.5 1009.4 0.0
05/03:30am 14.4 11.7 7.2 62 3.5 WNW 11 20 6 11 1009.5 1009.4 0.0
05/03:00am 14.6 11.1 7.4 62 3.6 W 15 24 8 13 1009.4 1009.3 0.0
05/02:30am 14.4 12.2 7.9 65 3.2 NW 9 13 5 7 1009.6 1009.5 0.0
05/02:00am 14.9 12.3 7.7 62 3.6 WNW 11 19 6 10 1009.1 1009.0 0.0
05/01:30am 15.4 13.0 7.2 58 4.1 W 9 20 5 11 1009.1 1009.0 0.0
05/01:00am 15.8 13.4 7.1 56 4.3 NW 9 20 5 11 1008.7 1008.5 0.0
05/12:30am 16.3 11.0 6.7 53 4.7 WNW 24 41 13 22 1008.2 1008.0 0.0
05/12:00am 16.5 11.7 7.4 55 4.6 WNW 22 37 12 20 1008.0 1007.8 0.0
 
Date/Time
EST
Temp
°C
App
Temp
°C
Dew
Point
°C
Rel
Hum
%
Delta-T
°C
Wind Press
QNH
hPa
Press
MSL
hPa
Rain since
9am
mm
Dir  Spd
km/h
Gust
km/h
Spd
kts
Gust
kts
04/11:34pm 16.7 10.2 6.5 51 5.0 WNW 30 48 16 26 1007.8 1007.6 0.0
04/11:30pm 17.0 10.1 6.5 50 5.2 WNW 32 48 17 26 1007.7 1007.5 0.0
04/11:00pm 16.3 11.5 5.6 49 5.2 WNW 20 33 11 18 1007.6 1007.4 0.0
04/10:30pm 16.1 12.6 5.4 49 5.1 W 13 19 7 10 1007.6 1007.4 0.0
04/10:00pm 16.9 14.5 5.2 46 5.6 SW 7 15 4 8 1007.1 1006.9 0.0
04/09:30pm 17.3 12.6 6.2 48 5.5 WSW 20 39 11 21 1006.3 1006.1 0.0
04/09:00pm 17.3 12.2 7.6 53 4.9 WNW 24 43 13 23 1005.6 1005.4 0.0
04/08:32pm 18.0 11.4 7.7 51 5.2 WNW 32 54 17 29 1004.6 1004.4 0.0
04/08:30pm 17.9 11.8 8.2 53 5.0 WNW 30 44 16 24 1004.8 1004.6 0.0
04/08:09pm 18.1 10.9 7.8 51 5.3 WNW 35 57 19 31 1004.5 1004.3 0.0
04/08:00pm 18.3 11.6 7.4 49 5.5 WNW 32 48 17 26 1004.4 1004.2 0.0
04/07:58pm 18.2 12.3 7.6 50 5.4 WNW 28 48 15 26 1004.4 1004.2 0.0
04/07:30pm 18.2 14.1 8.5 53 5.0 WNW 20 32 11 17 1003.7 1003.5 0.0
04/07:00pm 18.6 12.1 8.3 51 5.3 WNW 32 54 17 29 1003.0 1002.8 0.0
04/06:30pm 19.1 13.3 7.8 48 5.8 WNW 28 61 15 33 1001.5 1001.3 0.0
04/06:00pm 19.6 10.9 7.7 46 6.1 WNW 43 65 23 35 1001.0 1000.9 0.0
04/05:30pm 20.3 12.3 7.3 43 6.7 WNW 39 67 21 36 1000.3 1000.2 0.0
04/05:00pm 20.5 11.8 7.5 43 6.7 WNW 43 70 23 38 999.9 999.8 0.0
04/04:53pm 20.7 12.7 7.3 42 6.9 WNW 39 70 21 38 999.7 999.6 0.0
04/04:30pm 21.4 15.5 7.6 41 7.2 WNW 28 52 15 28 999.3 999.2 0.0
04/04:00pm 21.5 14.6 7.3 40 7.4 WNW 33 56 18 30 999.1 999.0 0.0
04/03:30pm 21.9 14.8 8.1 41 7.2 WNW 35 59 19 32 998.9 998.8 0.0
04/03:00pm 21.8 14.4 8.3 42 7.2 WNW 37 57 20 31 998.7 998.6 0.0
04/02:30pm 21.7 13.8 7.9 41 7.2 WNW 39 63 21 34 998.2 998.1 0.0
04/02:00pm 21.4 14.2 9.3 46 6.5 WNW 37 56 20 30 997.7 997.6 0.0
04/01:30pm 21.0 13.7 8.9 46 6.4 WNW 37 65 20 35 997.7 997.6 0.0
04/01:01pm 21.4 14.9 10.3 49 6.1 WNW 35 54 19 29 997.6 997.5 0.0
04/01:00pm 21.3 14.3 9.9 48 6.2 WNW 37 54 20 29 997.4 997.3 0.0
04/12:30pm 21.6 14.1 10.7 50 6.0 WNW 41 61 22 33 997.6 997.5 0.0
04/12:00pm 22.5 15.5 11.3 49 6.3 WNW 39 69 21 37 997.0 996.9 0.0
04/11:30am 22.9 16.9 13.4 55 5.5 WNW 37 59 20 32 996.7 996.6 0.0
04/11:22am 23.0 18.3 12.0 50 6.2 WNW 28 46 15 25 996.7 996.6 0.0
04/11:00am 23.2 21.0 16.0 64 4.4 NW 22 33 12 18 996.3 996.2 0.0
04/10:30am 21.9 18.7 16.4 71 3.3 NW 28 48 15 26 996.3 996.2 0.0
04/10:29am 21.7 18.4 16.0 70 3.4 NW 28 48 15 26 996.3 996.2 0.0
04/10:18am 21.8 20.1 17.2 75 2.8 NW 22 43 12 23 996.1 996.0 0.0
04/10:00am 20.7 21.8 17.9 84 1.7 NW 9 15 5 8 996.3 996.2 0.0
04/09:30am 20.4 20.5 18.3 88 1.3 NW 15 20 8 11 996.7 996.6 0.0
04/09:00am 18.1 18.4 17.8 98 0.2 NNW 13 20 7 11 996.2 996.1 9.8
04/08:30am 17.5 18.3 17.2 98 0.2 NW 9 13 5 7 995.6 995.5 9.8
04/08:00am 17.4 18.1 17.1 98 0.2 N 9 13 5 7 995.1 995.0 9.8
04/07:54am 17.3 18.0 17.0 98 0.2 NW 9 15 5 8 994.9 994.8 9.8
04/07:33am 17.9 15.2 17.6 98 0.2 WNW 28 46 15 25 995.4 995.3 8.4
04/07:30am 18.0 14.9 17.5 97 0.3 NW 30 46 16 25 995.4 995.3 7.0
04/07:27am 18.4 15.8 17.8 96 0.4 NNW 28 46 15 25 995.5 995.4 5.8
04/07:00am 19.9 19.2 19.6 98 0.2 NNE 22 32 12 17 994.5 994.4 4.0
04/06:30am 19.7 18.2 19.4 98 0.2 NNE 26 35 14 19 994.5 994.4 4.0
04/06:00am 19.8 19.5 19.5 98 0.2 NNE 20 30 11 16 994.9 994.8 4.0
04/05:30am 19.9 19.6 19.6 98 0.2 NNE 20 32 11 17 994.8 994.7 3.8
04/05:00am 19.9 20.2 19.6 98 0.2 N 17 22 9 12 995.6 995.5 3.8
04/04:30am 20.0 20.0 19.7 98 0.2 NNE 19 24 10 13 995.5 995.4 3.8
04/04:00am 19.8 19.5 19.5 98 0.2 NNE 20 28 11 15 996.2 996.1 3.8
04/03:30am 19.8 19.7 19.5 98 0.2 N 19 26 10 14 996.9 996.8 3.8
04/03:00am 19.7 19.3 19.4 98 0.2 N 20 26 11 14 997.3 997.2 3.8
04/02:30am 19.7 19.9 19.4 98 0.2 N 17 26 9 14 997.7 997.6 3.8
04/02:00am 19.6 19.8 19.3 98 0.2 NNE 17 24 9 13 997.9 997.8 3.8
04/01:30am 19.7 19.3 19.4 98 0.2 NNE 20 28 11 15 998.4 998.3 3.8
04/01:03am 19.8 19.1 19.5 98 0.2 NNE 22 30 12 16 999.0 998.9 3.8
04/01:00am 19.8 19.1 19.5 98 0.2 NNE 22 30 12 16 999.1 999.0 3.8
04/12:30am 19.8 19.1 19.5 98 0.2 NNE 22 32 12 17 999.8 999.7 3.8
04/12:00am 19.7 19.9 19.4 98 0.2 N 17 28 9 15 1000.5 1000.4 3.8
 
Date/Time
EST
Temp
°C
App
Temp
°C
Dew
Point
°C
Rel
Hum
%
Delta-T
°C
Wind Press
QNH
hPa
Press
MSL
hPa
Rain since
9am
mm
Dir  Spd
km/h
Gust
km/h
Spd
kts
Gust
kts
03/11:30pm 19.8 20.1 19.5 98 0.2 N 17 24 9 13 1001.0 1000.9 3.8
03/11:00pm 19.6 20.1 19.3 98 0.2 NE 15 19 8 10 1001.6 1001.4 3.8
03/10:30pm 19.2 19.6 18.9 98 0.2 NE 15 22 8 12 1002.1 1001.9 3.8
03/10:28pm 19.2 19.9 18.9 98 0.2 NNE 13 22 7 12 1002.0 1001.8 3.8
03/10:00pm 19.0 19.6 18.7 98 0.2 ENE 13 20 7 11 1002.6 1002.4 3.4
03/09:55pm 19.0 20.0 18.7 98 0.2 ENE 11 20 6 11 1002.8 1002.6 3.0
03/09:30pm 19.0 19.3 18.7 98 0.2 ENE 15 20 8 11 1003.3 1003.1 1.4
03/09:05pm 19.4 18.1 19.1 98 0.2 NNE 24 37 13 20 1003.6 1003.4 0.2
03/09:00pm 19.4 18.5 19.1 98 0.2 NNE 22 32 12 17 1003.7 1003.5 0.0
03/08:43pm 19.9 19.3 18.9 94 0.6 NNE 20 32 11 17 1003.9 1003.7 0.0
03/08:30pm 20.2 19.7 19.2 94 0.6 N 20 32 11 17 1003.8 1003.6 0.0
03/08:07pm 20.8 21.5 20.5 98 0.2 NNE 17 24 9 13 1003.8 1003.6 0.0
03/08:00pm 20.6 22.4 20.3 98 0.2 NNE 11 24 6 13 1003.7 1003.5 0.0
03/07:30pm 20.8 23.0 20.3 97 0.3 NE 9 13 5 7 1003.8 1003.6 0.0
03/07:00pm 21.0 22.2 20.0 94 0.6 ENE 13 17 7 9 1003.8 1003.6 0.0
03/06:30pm 21.3 23.3 19.9 92 0.9 ENE 9 13 5 7 1004.0 1003.8 0.0
03/06:00pm 21.5 23.2 19.4 88 1.3 E 9 13 5 7 1004.1 1003.9 0.0
03/05:30pm 21.8 23.1 19.4 86 1.5 ENE 11 17 6 9 1004.2 1004.0 0.0
03/05:00pm 22.3 24.2 19.8 86 1.6 E 9 11 5 6 1004.5 1004.3 0.0
03/04:30pm 22.4 23.8 19.6 84 1.8 ENE 11 17 6 9 1004.6 1004.4 0.0
03/04:00pm 22.9 24.1 19.9 83 1.9 ENE 13 19 7 10 1004.8 1004.6 0.0
03/03:30pm 23.2 23.5 18.7 76 2.8 ENE 15 20 8 11 1005.2 1005.0 0.0
03/03:00pm 23.6 23.2 18.0 71 3.5 NE 17 22 9 12 1005.9 1005.7 0.0
03/02:30pm 22.2 22.1 17.8 76 2.7 NNE 15 19 8 10 1006.3 1006.1 0.0
03/02:00pm 22.9 22.9 18.0 74 3.1 NE 15 20 8 11 1006.7 1006.5 0.0
03/01:30pm 24.8 24.0 16.0 58 5.4 NNW 15 26 8 14 1006.8 1006.6 0.0
03/01:00pm 24.1 24.0 15.9 60 5.0 NNW 11 17 6 9 1007.5 1007.3 0.0
03/12:30pm 24.2 25.1 16.7 63 4.6 NNW 7 17 4 9 1007.9 1007.7 0.0
03/12:00pm 23.1 22.2 15.9 64 4.4 NW 15 20 8 11 1008.5 1008.3 0.0
03/11:30am 23.2 22.8 16.3 65 4.2 WNW 13 17 7 9 1008.7 1008.5 0.0
03/11:00am 23.1 22.0 16.4 66 4.1 WNW 17 24 9 13 1008.8 1008.6 0.0
03/10:30am 22.7 21.7 16.5 68 3.8 WNW 17 20 9 11 1009.2 1009.1 0.0
03/10:00am 21.9 20.3 16.0 69 3.6 WNW 19 24 10 13 1009.3 1009.2 0.0
03/09:30am 21.6 20.7 16.8 74 2.9 NW 17 24 9 13 1009.3 1009.2 0.0
03/09:00am 20.7 20.6 16.9 79 2.3 NNW 13 20 7 11 1009.3 1009.2 6.2
03/08:30am 18.9 17.9 16.7 87 1.3 NNW 17 19 9 10 1009.1 1009.0 6.2
03/08:00am 17.6 18.0 16.3 92 0.8 NNW 9 13 5 7 1008.7 1008.5 6.2
03/07:30am 17.8 18.3 16.5 92 0.8 NNW 9 13 5 7 1008.7 1008.5 6.2
03/07:00am 17.0 17.9 16.7 98 0.2 NNW 7 11 4 6 1008.6 1008.4 6.2
03/06:30am 16.7 17.7 16.4 98 0.2 NE 6 7 3 4 1008.6 1008.4 6.2
03/06:00am 15.5 16.1 15.2 98 0.2 NE 6 9 3 5 1008.3 1008.1 6.2

Latest Capital City Observations: Canberra | Sydney | Melbourne | Brisbane | Adelaide | Perth | Hobart | Darwin

Other formats

Comma delimited format used in spreadsheet applications
http://www.bom.gov.au/fwo/IDN60903/IDN60903.94751.axf

JavaScript Object Notation format (JSON) in row-major order
http://www.bom.gov.au/fwo/IDN60903/IDN60903.94751.json

Data quality

Most of these data are generated automatically and are frequently updated. Quality checks on data are not normally performed. It is possible for incorrect values to appear. Refer to information at About Latest Weather Observations and please check the disclaimer before using these data.